Short Creek, Ohio
Current Conditions -  °F | °C
As of 10:53 AM on Tuesday 21 Oct 2014 (Local Time) from KHLG Reporting Station
Haze Haze  
Wind Chill: 50°   Ceiling: 700
Heat Index: 50°   Visibility: 2mi
Dew Point: 49°   Wind: 3mph
Humidity: 96%   Direction: 260°W
Pressure: 29.89"   Gusts: NA
Location:  40.2°N, 80.93°W
Report Text: KHLG 211453Z 26003KT 2SM BR BKN007 BKN011 OVC036 10/09 A2989 RMK AO2 RAB14E45 CIG 005V009 SLP126 P0000 60000 T01000094 50003
Loading
Personal Weather Stations






























Interactive Weather Map
Tropical Storm Tracking
New forecast layout! Learn more

10-Day Weather Forecast

Advertisements
Track Severe Weather on mobile